Bramon, Sweden

2:56 AM CET on February 09, 2016 (GMT +0100)
Sundsvall-Harnosand | | Change Station
CLOSE
Current Station
Airport
Location: Sundsvall-Harnosand Airpor,
Elevation: 10 ft
Nearby Weather Stations

Elev 10 ft 62.53 °N, 17.44 °E | Updated 6 minutes ago

Overcast
Overcast
34 °F
Feels Like 25 °F
N
13
Wind Variable Wind from SE

Today
High -- | Low -- °F
--% Chance of Precip.
Yesterday
High -- | Low -- °F
Precip. -- in
Pressure 28.91 in
Visibility 6.2 miles
Clouds Overcast 300 ft
Windchill 25 °F
Dew Point 34 °F
Humidity 100%
Rainfall 0.00 in
Snow Depth Not available.
7:55 AM 4:12 PM
New Moon, 0% visible
METAR ESNN 090150Z AUTO 14011KT 9999 OVC003/// 01/01 Q0979 R16/29//84
Pressure 28.91 in
Visibility 6.2 miles
Clouds Overcast 300 ft
Windchill 25 °F
Dew Point 34 °F
Humidity 100%
Rainfall 0.00 in
Snow Depth Not available.
7:55 AM 4:12 PM
New Moon, 0% visible
METAR ESNN 090150Z AUTO 14011KT 9999 OVC003/// 01/01 Q0979 R16/29//84

10-Day Weather Forecast

Almanac

Astronomy

Feb. 09, 2016 Rise Set
Actual Time
Civil Twilight
Nautical Twilight
Astronomical Twilight
Moon
Length of Visible Light
Length of Day
Tomorrow will be .
, % of the Moon is Illuminated

Today's Extremes

Country Highs Country Lows

Community

WunderPhotos

Upload Photos

1,891,527 photos uploaded!

WunderBlog® & News

Nearby

Air Quality

  Air Quality AQ Index Pollutant
Not available.

Snow Depth

Station Depth Elevation

Earthquake Activity

City Distance Mag. Time & Date
Minimum magnitude displayed is 2.5.

Coastal Water Temperatures

Place Temperature

Stations

Nearby Weather Stations

Station Location Temp. Windchill Dew Point Humidity Wind Precip. Elev Updated Type